createdAt,value
2023-02-02T00:04:49.448Z,13.10
2023-02-02T00:09:52.049Z,11.30
2023-02-02T00:14:54.673Z,9.00
2023-02-02T00:19:57.382Z,10.40
2023-02-02T00:25:00.047Z,9.80
2023-02-02T00:30:03.853Z,13.60
2023-02-02T00:35:08.092Z,8.50
2023-02-02T00:40:11.405Z,8.20
2023-02-02T00:45:16.744Z,15.40
2023-02-02T00:50:21.156Z,10.60
2023-02-02T00:55:24.783Z,7.70
2023-02-02T01:00:28.384Z,8.20
2023-02-02T01:05:31.901Z,8.10
2023-02-02T01:10:35.511Z,4.20
2023-02-02T01:15:38.232Z,4.90
2023-02-02T01:20:40.902Z,5.80
2023-02-02T01:25:43.569Z,5.50
2023-02-02T01:30:46.314Z,4.90
2023-02-02T01:35:51.563Z,4.40
2023-02-02T01:40:56.435Z,6.80
2023-02-02T01:45:59.261Z,7.20
2023-02-02T01:51:06.665Z,15.90
2023-02-02T01:56:12.502Z,9.00
2023-02-02T02:01:15.225Z,13.20
2023-02-02T02:06:19.837Z,10.90
2023-02-02T02:11:23.931Z,11.50
2023-02-02T02:16:29.437Z,22.30
2023-02-02T02:21:52.184Z,11.70
2023-02-02T02:26:57.900Z,11.40
2023-02-02T02:32:06.283Z,13.10
2023-02-02T02:37:16.591Z,14.20
2023-02-02T02:42:24.191Z,23.10
2023-02-02T02:47:30.226Z,10.30
2023-02-02T02:52:34.553Z,15.60
2023-02-02T02:57:42.020Z,16.70
2023-02-02T03:02:47.600Z,21.50
2023-02-02T03:08:01.226Z,17.30
2023-02-02T03:13:13.702Z,17.40
2023-02-02T03:18:19.697Z,16.00
2023-02-02T03:23:22.349Z,14.50
2023-02-02T03:28:25.776Z,8.60
2023-02-02T03:33:29.849Z,13.10
2023-02-02T03:38:35.336Z,20.60
2023-02-02T03:43:37.969Z,11.30
2023-02-02T03:48:40.601Z,16.80
2023-02-02T03:53:44.680Z,16.50
2023-02-02T03:58:47.449Z,15.70
2023-02-02T04:03:50.347Z,12.20
2023-02-02T04:08:53.171Z,18.10
2023-02-02T04:13:55.986Z,15.90
2023-02-02T04:18:58.845Z,17.40
2023-02-02T04:24:01.514Z,15.00
2023-02-02T04:29:04.194Z,7.50
2023-02-02T04:34:06.877Z,14.40
2023-02-02T04:39:11.750Z,18.10
2023-02-02T04:44:16.020Z,16.60
2023-02-02T04:49:18.647Z,13.40
2023-02-02T04:54:21.453Z,12.10
2023-02-02T04:59:24.234Z,12.30
2023-02-02T05:04:27.466Z,15.70
2023-02-02T05:09:32.474Z,13.90
2023-02-02T05:14:35.087Z,10.50
2023-02-02T05:19:38.023Z,10.90
2023-02-02T05:24:40.648Z,17.50
2023-02-02T05:29:43.246Z,10.50
2023-02-02T05:34:45.899Z,23.20
2023-02-02T05:39:49.798Z,19.30
2023-02-02T05:44:52.517Z,14.80
2023-02-02T05:49:55.202Z,10.90
2023-02-02T05:54:57.801Z,9.60
2023-02-02T06:00:00.420Z,6.20
2023-02-02T06:05:03.160Z,9.10
2023-02-02T06:10:06.102Z,7.60
2023-02-02T06:15:09.205Z,8.40
2023-02-02T06:20:12.706Z,6.80
2023-02-02T06:25:17.650Z,8.50
2023-02-02T06:30:20.353Z,8.60
2023-02-02T06:35:23.391Z,7.80
2023-02-02T06:40:28.148Z,7.90
2023-02-02T06:45:31.189Z,20.90
2023-02-02T06:50:33.830Z,17.40
2023-02-02T06:55:36.451Z,11.30
2023-02-02T07:00:39.079Z,17.60
2023-02-02T07:12:49.620Z,17.20
2023-02-02T07:17:54.703Z,17.70
2023-02-02T07:22:57.436Z,21.80
2023-02-02T07:28:00.097Z,23.80
2023-02-02T07:33:02.897Z,22.90
2023-02-02T07:38:05.514Z,29.50
2023-02-02T07:43:08.429Z,24.30
2023-02-02T07:48:11.023Z,20.50
2023-02-02T07:53:14.554Z,23.10
2023-02-02T07:58:17.205Z,14.90
2023-02-02T08:03:19.799Z,23.10
2023-02-02T08:08:22.429Z,17.90
2023-02-02T08:13:25.085Z,18.50
2023-02-02T08:18:27.741Z,20.00
2023-02-02T08:23:31.268Z,22.50
2023-02-02T08:28:36.606Z,19.60
2023-02-02T08:33:39.902Z,7.70
2023-02-02T08:38:42.676Z,7.90
2023-02-02T08:43:45.945Z,6.40
2023-02-02T08:48:48.937Z,5.40
2023-02-02T08:53:51.585Z,8.40
2023-02-02T08:58:56.322Z,11.50
2023-02-02T09:04:02.261Z,6.00
2023-02-02T09:09:08.764Z,4.10
2023-02-02T09:14:13.803Z,5.00
2023-02-02T09:19:17.147Z,5.60
2023-02-02T09:24:19.782Z,6.10
2023-02-02T09:29:22.406Z,5.00
2023-02-02T09:34:25.153Z,4.70
2023-02-02T09:39:28.296Z,5.90
2023-02-02T09:44:33.819Z,4.50
2023-02-02T09:49:40.098Z,4.40
2023-02-02T09:54:46.386Z,5.50
2023-02-02T10:05:00.549Z,2.30
2023-02-02T10:10:13.114Z,4.00
2023-02-02T10:15:30.544Z,4.30
2023-02-02T10:20:37.065Z,4.90
2023-02-02T10:25:49.239Z,2.70
2023-02-02T10:31:01.762Z,4.60
2023-02-02T10:36:09.831Z,5.30
2023-02-02T10:41:15.591Z,2.30
2023-02-02T10:46:22.995Z,3.40
2023-02-02T10:51:28.210Z,4.70
2023-02-02T10:56:39.771Z,4.50
2023-02-02T11:01:42.681Z,3.60
2023-02-02T11:06:48.315Z,8.60
2023-02-02T11:11:55.671Z,5.20
2023-02-02T11:17:03.053Z,2.50
2023-02-02T11:22:05.860Z,4.80
2023-02-02T11:27:14.199Z,4.70
2023-02-02T11:32:28.264Z,3.10
2023-02-02T11:37:34.582Z,3.30
2023-02-02T11:42:38.234Z,2.50
2023-02-02T11:47:41.904Z,5.50
2023-02-02T11:52:46.310Z,4.50
2023-02-02T11:57:54.699Z,6.30
2023-02-02T12:02:59.074Z,1.30
2023-02-02T12:08:01.989Z,1.40
2023-02-02T12:13:13.753Z,3.10
2023-02-02T12:18:22.216Z,4.20
2023-02-02T12:23:30.651Z,0.80
2023-02-02T12:28:37.141Z,6.30
2023-02-02T12:33:41.771Z,2.10
2023-02-02T12:38:46.767Z,3.90
2023-02-02T12:44:13.679Z,3.60
2023-02-02T12:49:45.574Z,3.30
2023-02-02T12:55:03.656Z,4.00
2023-02-02T13:00:10.575Z,2.00
2023-02-02T13:05:19.428Z,2.40
2023-02-02T13:10:26.311Z,3.70
2023-02-02T13:15:37.150Z,4.80
2023-02-02T13:20:45.215Z,2.30
2023-02-02T13:25:53.553Z,1.40
2023-02-02T13:30:59.245Z,2.00
2023-02-02T13:36:08.425Z,4.00
2023-02-02T13:41:13.376Z,2.90
2023-02-02T13:46:19.181Z,2.20
2023-02-02T13:51:27.619Z,5.30
2023-02-02T13:56:33.253Z,3.90
2023-02-02T14:01:36.228Z,2.40
2023-02-02T14:06:44.708Z,6.50
2023-02-02T14:11:58.436Z,1.20
2023-02-02T14:17:07.278Z,2.80
2023-02-02T14:22:09.920Z,3.90
2023-02-02T14:27:12.704Z,2.80
2023-02-02T14:32:21.120Z,5.00
2023-02-02T14:37:23.738Z,6.00
2023-02-02T14:42:36.047Z,9.60
2023-02-02T14:48:00.387Z,5.20
2023-02-02T14:53:31.672Z,9.20
2023-02-02T14:58:40.434Z,12.20
2023-02-02T15:03:45.762Z,13.70
2023-02-02T15:08:54.226Z,10.90
2023-02-02T15:14:07.061Z,10.30
2023-02-02T15:19:20.443Z,9.70
2023-02-02T15:24:27.070Z,9.80
2023-02-02T15:29:38.407Z,4.70
2023-02-02T15:34:46.559Z,5.10
2023-02-02T15:39:53.053Z,4.30
2023-02-02T15:44:55.790Z,3.00
2023-02-02T15:49:59.389Z,4.40
2023-02-02T15:55:02.355Z,5.50
2023-02-02T16:00:10.752Z,10.10
2023-02-02T16:05:19.143Z,11.10
2023-02-02T16:10:22.368Z,7.50
2023-02-02T16:15:28.299Z,6.80
2023-02-02T16:20:36.200Z,8.10
2023-02-02T16:25:46.365Z,7.50
2023-02-02T16:30:51.709Z,5.80
2023-02-02T16:35:54.999Z,4.60
2023-02-02T16:41:02.542Z,4.00
2023-02-02T16:46:08.581Z,10.10
2023-02-02T16:51:25.201Z,10.10
2023-02-02T16:56:32.979Z,8.70
2023-02-02T17:01:47.051Z,5.50
2023-02-02T17:06:53.239Z,5.50
2023-02-02T17:11:59.159Z,12.30
2023-02-02T17:17:06.124Z,17.30
2023-02-02T17:22:09.923Z,10.50
2023-02-02T17:27:17.439Z,13.00
2023-02-02T17:32:20.094Z,6.90
2023-02-02T17:37:22.773Z,7.00
2023-02-02T17:42:27.899Z,6.10
2023-02-02T17:47:30.562Z,4.60
2023-02-02T17:52:33.314Z,8.20
2023-02-02T17:57:36.195Z,4.80
2023-02-02T18:02:39.141Z,5.90
2023-02-02T18:07:42.406Z,8.30
2023-02-02T18:12:45.253Z,10.40
2023-02-02T18:17:47.853Z,9.40
2023-02-02T18:22:51.984Z,9.40
2023-02-02T18:27:57.297Z,11.50
2023-02-02T18:33:00.535Z,10.80
2023-02-02T18:38:03.156Z,9.30
2023-02-02T18:43:05.885Z,7.00
2023-02-02T18:48:08.681Z,6.20
2023-02-02T18:53:11.363Z,7.00
2023-02-02T18:58:14.603Z,9.10
2023-02-02T19:03:17.295Z,8.90
2023-02-02T19:08:22.394Z,9.90
2023-02-02T19:13:25.016Z,6.10
2023-02-02T19:18:31.661Z,6.60
2023-02-02T19:23:37.256Z,6.60
2023-02-02T19:28:39.965Z,5.90
2023-02-02T19:33:46.311Z,6.90
2023-02-02T19:43:58.677Z,5.60
2023-02-02T19:49:11.569Z,5.30
2023-02-02T19:54:24.124Z,7.50
2023-02-02T19:59:32.506Z,2.00
2023-02-02T20:04:35.148Z,2.60
2023-02-02T20:09:37.740Z,3.70
2023-02-02T20:14:41.827Z,3.20
2023-02-02T20:19:46.178Z,4.70
2023-02-02T20:24:49.862Z,3.80
2023-02-02T20:29:54.782Z,6.00
2023-02-02T20:34:59.226Z,5.60
2023-02-02T20:40:07.677Z,4.90
2023-02-02T20:45:10.330Z,4.90
2023-02-02T20:50:15.429Z,4.70
2023-02-02T20:55:20.735Z,2.20
2023-02-02T21:00:27.138Z,5.40
2023-02-02T21:05:29.988Z,2.60
2023-02-02T21:10:32.678Z,3.70
2023-02-02T21:15:35.294Z,3.00
2023-02-02T21:20:37.952Z,5.90
2023-02-02T21:25:40.589Z,5.00
2023-02-02T21:30:45.919Z,6.10
2023-02-02T21:35:48.602Z,4.80
2023-02-02T21:40:56.263Z,4.70
2023-02-02T21:46:02.866Z,5.80
2023-02-02T21:51:11.671Z,4.30
2023-02-02T21:56:37.065Z,9.00
2023-02-02T22:01:40.312Z,7.00
2023-02-02T22:06:47.677Z,6.30
2023-02-02T22:11:58.996Z,3.60
2023-02-02T22:17:01.667Z,4.20
2023-02-02T22:22:07.155Z,3.40
2023-02-02T22:27:15.553Z,7.30
2023-02-02T22:32:18.180Z,8.40
2023-02-02T22:37:20.831Z,6.30
2023-02-02T22:42:23.449Z,5.60
2023-02-02T22:47:26.094Z,7.80
2023-02-02T22:52:28.716Z,8.60
2023-02-02T22:57:31.354Z,4.20
2023-02-02T23:02:34.043Z,6.70
2023-02-02T23:07:37.107Z,5.20
2023-02-02T23:12:41.465Z,5.40
2023-02-02T23:17:44.129Z,7.80
2023-02-02T23:22:46.821Z,3.40
2023-02-02T23:27:49.783Z,5.20
2023-02-02T23:32:53.054Z,4.60
2023-02-02T23:37:55.659Z,5.40
2023-02-02T23:42:58.260Z,4.30
2023-02-02T23:48:01.206Z,6.00
2023-02-02T23:53:05.561Z,5.80
2023-02-02T23:58:09.120Z,4.80
